createdAt,value
2019-03-13T00:00:56.034Z,5.40
2019-03-13T00:03:31.279Z,5.27
2019-03-13T00:06:05.331Z,5.41
2019-03-13T00:08:39.627Z,5.33
2019-03-13T00:11:15.755Z,5.30
2019-03-13T00:13:49.630Z,5.26
2019-03-13T00:16:23.318Z,5.45
2019-03-13T00:18:57.132Z,5.33
2019-03-13T00:21:31.212Z,5.31
2019-03-13T00:24:04.856Z,5.27
2019-03-13T00:26:38.421Z,5.34
2019-03-13T00:29:12.033Z,5.27
2019-03-13T00:31:46.068Z,5.41
2019-03-13T00:34:19.570Z,5.30
2019-03-13T00:36:53.094Z,5.38
2019-03-13T00:39:26.783Z,5.31
2019-03-13T00:42:00.396Z,5.31
2019-03-13T00:44:33.952Z,5.31
2019-03-13T00:47:07.454Z,5.45
2019-03-13T00:49:42.757Z,5.41
2019-03-13T00:52:16.293Z,5.28
2019-03-13T00:54:49.841Z,5.44
2019-03-13T00:57:23.495Z,5.34
2019-03-13T00:59:57.154Z,5.33
2019-03-13T01:02:40.584Z,5.47
2019-03-13T01:05:17.759Z,5.33
2019-03-13T01:07:51.755Z,5.45
2019-03-13T01:10:25.424Z,5.40
2019-03-13T01:13:00.485Z,5.28
2019-03-13T01:15:34.870Z,5.35
2019-03-13T01:18:09.122Z,5.26
2019-03-13T01:20:43.311Z,5.30
2019-03-13T01:23:17.494Z,5.31
2019-03-13T01:25:51.040Z,5.30
2019-03-13T01:28:24.688Z,5.40
2019-03-13T01:31:16.988Z,5.41
2019-03-13T01:33:50.752Z,5.27
2019-03-13T01:36:24.906Z,5.35
2019-03-13T01:38:58.633Z,5.28
2019-03-13T01:41:32.214Z,5.34
2019-03-13T01:44:05.972Z,5.26
2019-03-13T01:46:41.636Z,5.37
2019-03-13T01:49:15.341Z,5.26
2019-03-13T01:51:49.040Z,5.43
2019-03-13T01:54:22.790Z,5.33
2019-03-13T01:56:56.523Z,5.34
2019-03-13T01:59:30.447Z,5.33
2019-03-13T02:02:05.700Z,5.34
2019-03-13T02:04:40.782Z,5.30
2019-03-13T02:07:14.903Z,5.33
2019-03-13T02:09:48.500Z,5.27
2019-03-13T02:12:22.069Z,5.30
2019-03-13T02:14:55.750Z,5.26
2019-03-13T02:17:30.372Z,5.28
2019-03-13T02:20:06.167Z,5.30
2019-03-13T02:22:39.685Z,5.37
2019-03-13T02:25:13.259Z,5.27
2019-03-13T02:27:47.236Z,5.51
2019-03-13T02:30:22.067Z,5.41
2019-03-13T02:32:55.776Z,5.31
2019-03-13T02:35:29.844Z,5.35
2019-03-13T02:38:03.970Z,5.40
2019-03-13T02:40:38.755Z,5.33
2019-03-13T02:43:12.321Z,5.31
2019-03-13T02:45:46.013Z,5.37
2019-03-13T02:48:24.961Z,5.28
2019-03-13T02:50:58.610Z,5.30
2019-03-13T02:53:41.931Z,5.35
2019-03-13T02:56:37.573Z,5.28
2019-03-13T02:59:11.374Z,5.26
2019-03-13T03:02:24.465Z,5.30
2019-03-13T03:04:58.177Z,5.27
2019-03-13T03:07:31.797Z,5.30
2019-03-13T03:10:05.736Z,5.35
2019-03-13T03:12:39.358Z,5.45
2019-03-13T03:15:18.359Z,5.37
2019-03-13T03:17:52.612Z,5.28
2019-03-13T03:20:26.483Z,5.28
2019-03-13T03:23:00.098Z,5.35
2019-03-13T03:25:33.721Z,5.34
2019-03-13T03:28:07.327Z,5.27
2019-03-13T03:30:41.005Z,5.30
2019-03-13T03:33:14.816Z,5.27
2019-03-13T03:35:48.936Z,5.28
2019-03-13T03:38:23.598Z,5.30
2019-03-13T03:40:58.857Z,5.33
2019-03-13T03:43:40.363Z,5.33
2019-03-13T03:46:09.315Z,5.28
2019-03-13T03:48:45.594Z,5.34
2019-03-13T03:51:20.031Z,5.27
2019-03-13T03:53:57.606Z,5.31
2019-03-13T03:56:32.130Z,5.27
2019-03-13T03:59:06.425Z,5.27
2019-03-13T04:01:41.436Z,5.33
2019-03-13T04:04:15.467Z,5.27
2019-03-13T04:06:50.819Z,5.33
2019-03-13T04:09:26.096Z,5.33
2019-03-13T04:11:59.881Z,5.24
2019-03-13T04:14:34.771Z,5.33
2019-03-13T04:17:08.634Z,5.27
2019-03-13T04:19:42.400Z,5.44
2019-03-13T04:22:16.153Z,5.40
2019-03-13T04:24:49.733Z,5.31
2019-03-13T04:27:24.858Z,5.28
2019-03-13T04:29:58.481Z,5.35
2019-03-13T04:32:32.058Z,5.35
2019-03-13T04:35:05.569Z,5.31
2019-03-13T04:37:39.066Z,5.30
2019-03-13T04:40:12.527Z,5.28
2019-03-13T04:42:45.998Z,5.27
2019-03-13T04:45:19.539Z,5.28
2019-03-13T04:47:53.603Z,5.31
2019-03-13T04:50:27.121Z,6.72
2019-03-13T04:53:00.681Z,11.28
2019-03-13T04:55:34.549Z,11.76
2019-03-13T04:58:09.011Z,10.41
2019-03-13T05:00:42.759Z,9.42
2019-03-13T05:03:16.225Z,8.80
2019-03-13T05:06:02.175Z,8.38
2019-03-13T05:08:45.390Z,8.06
2019-03-13T05:11:18.119Z,7.78
2019-03-13T05:13:51.581Z,7.56
2019-03-13T05:16:26.127Z,7.41
2019-03-13T05:18:59.564Z,7.21
2019-03-13T05:21:33.028Z,7.06
2019-03-13T05:24:06.399Z,6.90
2019-03-13T05:26:39.967Z,6.79
2019-03-13T05:29:15.465Z,6.68
2019-03-13T05:31:48.818Z,9.37
2019-03-13T05:34:22.256Z,13.43
2019-03-13T05:36:56.599Z,12.73
2019-03-13T05:39:30.010Z,11.29
2019-03-13T05:42:03.734Z,10.23
2019-03-13T05:44:37.083Z,9.61
2019-03-13T05:47:10.415Z,9.14
2019-03-13T05:49:43.772Z,8.76
2019-03-13T05:52:17.216Z,8.47
2019-03-13T05:54:50.657Z,8.16
2019-03-13T05:57:24.032Z,7.88
2019-03-13T05:59:57.433Z,7.65
2019-03-13T06:02:31.455Z,10.13
2019-03-13T06:05:06.082Z,14.04
2019-03-13T06:07:39.655Z,13.49
2019-03-13T06:10:13.155Z,11.93
2019-03-13T06:12:46.936Z,10.86
2019-03-13T06:15:20.493Z,10.13
2019-03-13T06:17:54.324Z,9.58
2019-03-13T06:20:27.826Z,9.15
2019-03-13T06:23:01.268Z,8.77
2019-03-13T06:25:35.153Z,8.45
2019-03-13T06:28:08.553Z,8.16
2019-03-13T06:30:44.208Z,10.65
2019-03-13T06:33:20.064Z,14.51
2019-03-13T06:35:53.623Z,13.62
2019-03-13T06:38:27.118Z,12.07
2019-03-13T06:41:00.945Z,11.04
2019-03-13T06:43:34.397Z,10.34
2019-03-13T06:46:07.909Z,9.80
2019-03-13T06:48:41.388Z,9.35
2019-03-13T06:51:14.861Z,8.99
2019-03-13T06:53:48.469Z,8.59
2019-03-13T06:56:22.352Z,8.32
2019-03-13T06:59:17.794Z,8.02
2019-03-13T07:02:18.894Z,11.37
2019-03-13T07:05:02.576Z,15.11
2019-03-13T07:08:12.880Z,13.46
2019-03-13T07:11:07.982Z,11.69
2019-03-13T07:13:50.290Z,10.66
2019-03-13T07:16:51.368Z,10.06
2019-03-13T07:19:35.604Z,9.48
2019-03-13T07:22:26.827Z,9.04
2019-03-13T07:25:15.867Z,8.65
2019-03-13T07:27:59.478Z,8.31
2019-03-13T07:30:48.794Z,8.04
2019-03-13T07:33:43.947Z,11.24
2019-03-13T07:36:37.505Z,13.17
2019-03-13T07:39:35.497Z,11.69
2019-03-13T07:42:27.583Z,10.49
2019-03-13T07:45:35.175Z,9.80
2019-03-13T07:48:17.912Z,9.23
2019-03-13T07:51:13.247Z,8.89
2019-03-13T07:54:11.213Z,8.51
2019-03-13T07:57:13.448Z,11.86
2019-03-13T07:59:58.816Z,14.63
2019-03-13T08:02:49.513Z,13.11
2019-03-13T08:05:47.689Z,11.87
2019-03-13T08:08:44.165Z,11.10
2019-03-13T08:11:35.197Z,10.56
2019-03-13T08:14:26.188Z,10.17
2019-03-13T08:17:36.379Z,9.86
2019-03-13T08:20:29.295Z,9.56
2019-03-13T08:23:19.932Z,9.31
2019-03-13T08:26:11.992Z,12.37
2019-03-13T08:29:04.099Z,13.22
2019-03-13T08:31:56.184Z,11.94
2019-03-13T08:34:54.337Z,11.19
2019-03-13T08:37:49.726Z,10.80
2019-03-13T08:40:44.902Z,10.61
2019-03-13T08:43:43.042Z,10.41
2019-03-13T08:46:38.210Z,10.20
2019-03-13T08:49:39.739Z,10.01
2019-03-13T08:52:33.455Z,10.16
2019-03-13T08:55:26.953Z,14.27
2019-03-13T08:58:12.321Z,13.87
2019-03-13T09:01:12.077Z,12.83
2019-03-13T09:03:56.453Z,12.20
2019-03-13T09:06:51.691Z,11.80
2019-03-13T09:09:43.942Z,11.44
2019-03-13T09:12:45.311Z,11.17
2019-03-13T09:15:29.247Z,10.90
2019-03-13T09:18:27.823Z,10.72
2019-03-13T09:21:22.941Z,10.62
2019-03-13T09:24:02.646Z,10.56
2019-03-13T09:26:53.481Z,10.49
2019-03-13T09:29:49.794Z,10.38
2019-03-13T09:32:47.924Z,10.24
2019-03-13T09:35:42.769Z,10.14
2019-03-13T09:38:30.906Z,10.01
2019-03-13T09:41:32.093Z,9.89
2019-03-13T09:44:34.480Z,9.78
2019-03-13T09:47:41.897Z,9.67
2019-03-13T09:50:49.816Z,9.56
2019-03-13T09:53:33.509Z,9.45
2019-03-13T09:56:21.495Z,9.39
2019-03-13T09:59:19.800Z,9.31
2019-03-13T10:02:11.950Z,9.24
2019-03-13T10:05:22.292Z,9.17
2019-03-13T10:08:17.403Z,9.14
2019-03-13T10:11:25.433Z,9.15
2019-03-13T10:14:09.110Z,9.17
2019-03-13T10:17:11.048Z,9.20
2019-03-13T10:19:54.503Z,9.24
2019-03-13T10:22:46.813Z,9.32
2019-03-13T10:25:53.214Z,9.41
2019-03-13T10:28:45.274Z,9.46
2019-03-13T10:31:37.312Z,9.53
2019-03-13T10:34:29.408Z,9.58
2019-03-13T10:37:19.671Z,9.65
2019-03-13T10:40:11.022Z,9.72
2019-03-13T10:43:02.158Z,9.80
2019-03-13T10:45:48.320Z,9.83
2019-03-13T10:48:27.966Z,9.86
2019-03-13T10:51:17.720Z,9.93
2019-03-13T10:54:06.807Z,10.00
2019-03-13T10:56:57.430Z,10.03
2019-03-13T10:59:52.519Z,10.04
2019-03-13T11:02:39.514Z,10.06
2019-03-13T11:05:31.890Z,10.03
2019-03-13T11:08:10.830Z,10.00
2019-03-13T11:11:03.303Z,10.00
2019-03-13T11:14:14.896Z,10.03
2019-03-13T11:16:51.889Z,10.04
2019-03-13T11:19:31.899Z,10.04
2019-03-13T11:22:16.498Z,10.00
2019-03-13T11:25:03.674Z,9.98
2019-03-13T11:28:01.722Z,9.98
2019-03-13T11:30:43.766Z,9.97
2019-03-13T11:33:43.057Z,9.97
2019-03-13T11:36:29.199Z,9.96
2019-03-13T11:39:33.158Z,9.93
2019-03-13T11:42:35.270Z,9.93
2019-03-13T11:45:39.515Z,9.90
2019-03-13T11:48:30.265Z,9.93
2019-03-13T11:51:22.310Z,9.96
2019-03-13T11:54:04.234Z,10.10
2019-03-13T11:56:46.677Z,10.21
2019-03-13T11:59:38.061Z,10.34
2019-03-13T12:02:48.399Z,10.48
2019-03-13T12:05:37.675Z,10.63
2019-03-13T12:08:32.332Z,10.79
2019-03-13T12:11:23.234Z,10.94
2019-03-13T12:14:14.037Z,11.07
2019-03-13T12:16:55.685Z,11.19
2019-03-13T12:19:50.449Z,11.28
2019-03-13T12:22:39.096Z,11.38
2019-03-13T12:25:26.559Z,11.48
2019-03-13T12:28:27.349Z,11.58
2019-03-13T12:31:19.389Z,11.65
2019-03-13T12:34:12.443Z,11.66
2019-03-13T12:36:58.156Z,11.62
2019-03-13T12:39:53.006Z,11.61
2019-03-13T12:42:41.569Z,11.54
2019-03-13T12:45:34.863Z,11.49
2019-03-13T12:48:16.976Z,11.51
2019-03-13T12:51:24.716Z,11.46
2019-03-13T12:54:16.840Z,11.45
2019-03-13T12:57:15.468Z,11.44
2019-03-13T13:00:07.633Z,11.35
2019-03-13T13:03:10.736Z,11.31
2019-03-13T13:06:02.045Z,11.25
2019-03-13T13:08:59.991Z,11.19
2019-03-13T13:11:51.703Z,11.15
2019-03-13T13:14:42.545Z,11.12
2019-03-13T13:17:21.849Z,11.07
2019-03-13T13:19:55.453Z,11.08
2019-03-13T13:22:29.765Z,11.14
2019-03-13T13:25:03.356Z,11.15
2019-03-13T13:27:37.277Z,11.17
2019-03-13T13:30:12.087Z,11.21
2019-03-13T13:32:45.759Z,11.18
2019-03-13T13:35:19.250Z,11.17
2019-03-13T13:37:52.720Z,11.19
2019-03-13T13:40:26.096Z,11.22
2019-03-13T13:42:59.553Z,11.25
2019-03-13T13:46:15.557Z,11.34
2019-03-13T13:48:49.997Z,11.37
2019-03-13T13:51:23.483Z,11.37
2019-03-13T13:53:56.937Z,11.37
2019-03-13T13:56:30.348Z,11.35
2019-03-13T13:59:03.793Z,11.41
2019-03-13T14:01:37.465Z,11.44
2019-03-13T14:04:10.929Z,11.45
2019-03-13T14:06:44.126Z,11.46
2019-03-13T14:09:17.308Z,11.48
2019-03-13T14:11:52.324Z,11.48
2019-03-13T14:14:26.537Z,11.45
2019-03-13T14:16:59.708Z,11.44
2019-03-13T14:19:32.871Z,11.44
2019-03-13T14:22:06.014Z,11.44
2019-03-13T14:24:39.210Z,11.45
2019-03-13T14:27:14.942Z,11.45
2019-03-13T14:29:47.473Z,11.42
2019-03-13T14:32:20.619Z,11.44
2019-03-13T14:35:09.518Z,11.45
2019-03-13T14:38:13.757Z,11.41
2019-03-13T14:40:54.439Z,11.38
2019-03-13T14:43:40.420Z,11.38
2019-03-13T14:46:17.951Z,11.34
2019-03-13T14:48:51.138Z,11.32
2019-03-13T14:51:28.612Z,11.29
2019-03-13T14:54:07.188Z,11.27
2019-03-13T14:56:42.394Z,11.22
2019-03-13T14:59:15.557Z,11.17
2019-03-13T15:01:48.821Z,11.17
2019-03-13T15:04:23.575Z,11.12
2019-03-13T15:06:56.674Z,11.12
2019-03-13T15:09:29.882Z,11.10
2019-03-13T15:12:02.977Z,11.07
2019-03-13T15:14:36.208Z,11.01
2019-03-13T15:17:09.634Z,10.99
2019-03-13T15:19:42.836Z,10.96
2019-03-13T15:22:16.067Z,10.94
2019-03-13T15:24:49.373Z,10.93
2019-03-13T15:27:22.609Z,10.90
2019-03-13T15:29:55.780Z,10.83
2019-03-13T15:32:29.029Z,10.79
2019-03-13T15:35:02.191Z,10.76
2019-03-13T15:37:35.541Z,10.75
2019-03-13T15:40:10.627Z,10.72
2019-03-13T15:42:43.981Z,10.68
2019-03-13T15:45:19.294Z,10.66
2019-03-13T15:47:53.108Z,10.62
2019-03-13T15:50:26.478Z,10.61
2019-03-13T15:52:59.927Z,10.53
2019-03-13T15:55:33.185Z,10.53
2019-03-13T15:58:09.549Z,10.49
2019-03-13T16:00:42.981Z,10.48
2019-03-13T16:03:16.354Z,10.44
2019-03-13T16:05:49.753Z,10.42
2019-03-13T16:08:23.255Z,10.38
2019-03-13T16:10:56.616Z,10.35
2019-03-13T16:13:30.032Z,10.28
2019-03-13T16:16:03.391Z,10.24
2019-03-13T16:18:36.778Z,10.23
2019-03-13T16:21:10.008Z,10.18
2019-03-13T16:23:44.874Z,10.14
2019-03-13T16:26:18.581Z,10.10
2019-03-13T16:28:52.280Z,10.07
2019-03-13T16:31:26.033Z,10.03
2019-03-13T16:33:59.862Z,9.98
2019-03-13T16:36:33.902Z,9.96
2019-03-13T16:39:09.153Z,9.92
2019-03-13T16:41:43.759Z,9.90
2019-03-13T16:44:18.100Z,9.85
2019-03-13T16:46:52.645Z,9.80
2019-03-13T16:49:26.957Z,9.76
2019-03-13T16:52:04.754Z,9.73
2019-03-13T16:54:40.169Z,9.67
2019-03-13T16:57:15.123Z,9.63
2019-03-13T16:59:59.986Z,9.61
2019-03-13T17:02:24.481Z,9.56
2019-03-13T17:04:58.670Z,9.56
2019-03-13T17:07:32.632Z,9.49
2019-03-13T17:10:06.923Z,9.48
2019-03-13T17:12:40.922Z,9.43
2019-03-13T17:15:17.977Z,9.43
2019-03-13T17:17:51.847Z,9.37
2019-03-13T17:20:27.599Z,9.38
2019-03-13T17:23:01.602Z,9.32
2019-03-13T17:25:35.770Z,9.31
2019-03-13T17:28:09.984Z,9.25
2019-03-13T17:30:43.615Z,9.24
2019-03-13T17:33:17.028Z,9.21
2019-03-13T17:35:50.464Z,9.18
2019-03-13T17:38:23.940Z,9.14
2019-03-13T17:40:57.962Z,9.14
2019-03-13T17:43:39.042Z,9.11
2019-03-13T17:46:13.729Z,9.08
2019-03-13T17:48:47.237Z,9.06
2019-03-13T17:51:21.152Z,9.07
2019-03-13T17:53:54.616Z,9.03
2019-03-13T17:56:28.538Z,9.03
2019-03-13T17:59:02.510Z,9.00
2019-03-13T18:01:38.266Z,8.97
2019-03-13T18:04:12.365Z,8.99
2019-03-13T18:06:46.369Z,8.96
2019-03-13T18:09:19.805Z,8.93
2019-03-13T18:11:55.736Z,8.95
2019-03-13T18:14:32.071Z,8.90
2019-03-13T18:17:05.679Z,8.89
2019-03-13T18:19:39.579Z,8.86
2019-03-13T18:22:13.181Z,8.82
2019-03-13T18:24:52.075Z,8.85
2019-03-13T18:27:38.922Z,8.80
2019-03-13T18:30:21.422Z,8.79
2019-03-13T18:33:11.160Z,8.76
2019-03-13T18:35:47.742Z,8.75
2019-03-13T18:38:48.400Z,8.70
2019-03-13T18:41:23.551Z,8.69
2019-03-13T18:43:57.142Z,8.68
2019-03-13T18:46:30.706Z,8.63
2019-03-13T18:49:08.985Z,8.65
2019-03-13T18:51:42.986Z,8.60
2019-03-13T18:54:16.475Z,8.59
2019-03-13T18:56:49.912Z,8.56
2019-03-13T18:59:25.965Z,8.58
2019-03-13T19:01:59.355Z,8.56
2019-03-13T19:04:32.883Z,8.53
2019-03-13T19:07:06.349Z,8.52
2019-03-13T19:09:39.998Z,8.51
2019-03-13T19:12:14.237Z,8.51
2019-03-13T19:14:48.796Z,8.49
2019-03-13T19:17:22.582Z,8.47
2019-03-13T19:19:56.019Z,8.47
2019-03-13T19:22:29.452Z,8.45
2019-03-13T19:25:03.014Z,8.42
2019-03-13T19:27:36.492Z,8.40
2019-03-13T19:30:15.769Z,8.42
2019-03-13T19:32:50.231Z,8.40
2019-03-13T19:35:23.687Z,8.38
2019-03-13T19:37:58.163Z,8.37
2019-03-13T19:40:31.613Z,8.35
2019-03-13T19:43:05.027Z,8.35
2019-03-13T19:45:43.246Z,8.32
2019-03-13T19:48:18.770Z,8.30
2019-03-13T19:50:56.394Z,8.28
2019-03-13T19:53:34.561Z,8.28
2019-03-13T19:56:12.189Z,8.28
2019-03-13T19:58:45.704Z,8.27
2019-03-13T20:01:19.087Z,8.24
2019-03-13T20:03:55.324Z,8.22
2019-03-13T20:06:27.629Z,8.21
2019-03-13T20:09:01.254Z,8.18
2019-03-13T20:11:36.297Z,8.20
2019-03-13T20:14:09.854Z,8.21
2019-03-13T20:16:46.447Z,8.20
2019-03-13T20:19:18.737Z,8.17
2019-03-13T20:21:52.181Z,8.16
2019-03-13T20:24:25.539Z,8.17
2019-03-13T20:26:59.027Z,8.17
2019-03-13T20:29:32.543Z,8.17
2019-03-13T20:32:06.016Z,8.16
2019-03-13T20:34:39.406Z,8.16
2019-03-13T20:37:13.206Z,8.16
2019-03-13T20:39:46.677Z,8.14
2019-03-13T20:42:20.143Z,8.14
2019-03-13T20:44:53.668Z,8.14
2019-03-13T20:47:31.011Z,8.17
2019-03-13T20:50:04.438Z,8.14
2019-03-13T20:52:38.162Z,8.13
2019-03-13T20:55:13.046Z,8.16
2019-03-13T20:57:46.771Z,8.14
2019-03-13T21:00:23.303Z,8.13
2019-03-13T21:02:56.683Z,8.14
2019-03-13T21:05:30.107Z,8.11
2019-03-13T21:08:03.441Z,8.14
2019-03-13T21:10:36.945Z,8.10
2019-03-13T21:13:10.241Z,8.09
2019-03-13T21:15:43.995Z,8.10
2019-03-13T21:18:17.470Z,8.09
2019-03-13T21:20:50.829Z,8.09
2019-03-13T21:23:24.191Z,8.11
2019-03-13T21:25:57.521Z,8.07
2019-03-13T21:28:30.842Z,8.04
2019-03-13T21:31:04.228Z,8.07
2019-03-13T21:33:38.038Z,8.06
2019-03-13T21:36:11.466Z,8.03
2019-03-13T21:38:44.892Z,8.03
2019-03-13T21:41:18.182Z,8.00
2019-03-13T21:43:51.723Z,7.99
2019-03-13T21:46:25.825Z,7.99
2019-03-13T21:48:59.255Z,7.97
2019-03-13T21:51:32.535Z,7.97
2019-03-13T21:54:05.843Z,7.94
2019-03-13T21:56:39.195Z,7.96
2019-03-13T21:59:12.605Z,7.93
2019-03-13T22:01:46.073Z,7.94
2019-03-13T22:04:24.007Z,7.94
2019-03-13T22:06:55.389Z,7.94
2019-03-13T22:09:29.001Z,7.94
2019-03-13T22:12:02.533Z,7.93
2019-03-13T22:14:38.405Z,7.96
2019-03-13T22:17:11.185Z,7.93
2019-03-13T22:19:44.719Z,7.94
2019-03-13T22:22:18.614Z,7.94
2019-03-13T22:24:53.056Z,7.94
2019-03-13T22:27:26.514Z,7.96
2019-03-13T22:30:00.386Z,7.94
2019-03-13T22:32:37.654Z,7.96
2019-03-13T22:35:11.167Z,7.96
2019-03-13T22:37:44.647Z,7.94
2019-03-13T22:40:18.423Z,7.96
2019-03-13T22:42:52.701Z,7.94
2019-03-13T22:45:26.171Z,7.93
2019-03-13T22:47:59.615Z,7.93
2019-03-13T22:50:33.228Z,7.93
2019-03-13T22:53:06.744Z,7.92
2019-03-13T22:55:41.155Z,7.93
2019-03-13T22:58:14.956Z,7.89
2019-03-13T23:01:22.612Z,7.89
2019-03-13T23:03:56.417Z,7.88
2019-03-13T23:06:30.042Z,7.90
2019-03-13T23:09:03.195Z,7.88
2019-03-13T23:11:43.114Z,7.86
2019-03-13T23:14:16.284Z,7.85
2019-03-13T23:16:49.457Z,7.86
2019-03-13T23:19:22.655Z,7.85
2019-03-13T23:21:55.828Z,7.85
2019-03-13T23:24:28.999Z,7.85
2019-03-13T23:27:02.177Z,7.83
2019-03-13T23:29:35.834Z,7.81
2019-03-13T23:32:08.983Z,7.82
2019-03-13T23:34:42.141Z,7.78
2019-03-13T23:37:15.331Z,7.79
2019-03-13T23:39:48.915Z,7.79
2019-03-13T23:42:23.224Z,7.78
2019-03-13T23:44:56.385Z,7.75
2019-03-13T23:47:29.514Z,7.76
2019-03-13T23:50:02.646Z,7.75
2019-03-13T23:52:35.807Z,7.72
2019-03-13T23:55:08.976Z,7.72
2019-03-13T23:57:42.122Z,7.70
